AAL2662 KCLT-KTUL
Flight info
| Callsign | AAL2662 |
|---|---|
| Flight time | 2h 17m |
| Altitude | 38000 |
| Route | BOBZY5 BNA J46 LUKKY RZC PRYOR |
| Aircraft | A20N/M-SDE2E3FGHIJ1RWXY/LB1 |
Departure
| Time | 2026-05-09 08:33 |
|---|---|
| Airport | Charlotte Douglas International Airport (KCLT) |
Arrival
| Time | 2026-05-09 10:51 |
|---|---|
| Airport | Tulsa International Airport (KTUL) |
| Time | Latitude | Longitude | Altitude | Speed | Heading |
|---|---|---|---|---|---|
| 2026-05-09 08:16 | 35.21795 | -80.94482 | 723 ft | 0 kts | 309° |
| 2026-05-09 08:21 | 35.21793 | -80.94480 | 723 ft | 2 kts | 309° |
| 2026-05-09 08:22 | 35.21786 | -80.94469 | 723 ft | 0 kts | 309° |
| 2026-05-09 08:22 | 35.21779 | -80.94456 | 723 ft | 2 kts | 288° |
| 2026-05-09 08:22 | 35.21776 | -80.94438 | 723 ft | 2 kts | 267° |
| 2026-05-09 08:22 | 35.21779 | -80.94421 | 723 ft | 2 kts | 245° |
| 2026-05-09 08:23 | 35.21788 | -80.94405 | 723 ft | 2 kts | 223° |
| 2026-05-09 08:23 | 35.21800 | -80.94395 | 723 ft | 2 kts | 201° |
| 2026-05-09 08:23 | 35.21808 | -80.94392 | 723 ft | 1 kts | 188° |
| 2026-05-09 08:23 | 35.21814 | -80.94392 | 723 ft | 0 kts | 188° |
| 2026-05-09 08:27 | 35.21813 | -80.94392 | 723 ft | 0 kts | 188° |
| 2026-05-09 08:27 | 35.21789 | -80.94393 | 723 ft | 6 kts | 179° |
| 2026-05-09 08:27 | 35.21731 | -80.94390 | 722 ft | 9 kts | 175° |
| 2026-05-09 08:27 | 35.21657 | -80.94367 | 720 ft | 11 kts | 131° |
| 2026-05-09 08:28 | 35.21637 | -80.94267 | 721 ft | 12 kts | 94° |
| 2026-05-09 08:28 | 35.21645 | -80.94170 | 723 ft | 11 kts | 62° |
| 2026-05-09 08:28 | 35.21693 | -80.94099 | 726 ft | 12 kts | 47° |
| 2026-05-09 08:28 | 35.21766 | -80.94001 | 729 ft | 16 kts | 48° |
| 2026-05-09 08:29 | 35.21838 | -80.93902 | 732 ft | 14 kts | 48° |
| 2026-05-09 08:29 | 35.21904 | -80.93812 | 734 ft | 14 kts | 48° |
| 2026-05-09 08:29 | 35.21970 | -80.93727 | 736 ft | 13 kts | 33° |
| 2026-05-09 08:29 | 35.22060 | -80.93715 | 737 ft | 13 kts | 355° |
| 2026-05-09 08:30 | 35.22149 | -80.93723 | 739 ft | 12 kts | 356° |
| 2026-05-09 08:30 | 35.22237 | -80.93731 | 739 ft | 13 kts | 356° |
| 2026-05-09 08:30 | 35.22333 | -80.93739 | 739 ft | 14 kts | 356° |
| 2026-05-09 08:30 | 35.22378 | -80.93731 | 739 ft | 0 kts | 39° |
| 2026-05-09 08:31 | 35.22384 | -80.93724 | 739 ft | 3 kts | 45° |
| 2026-05-09 08:32 | 35.22401 | -80.93684 | 740 ft | 6 kts | 75° |
| 2026-05-09 08:32 | 35.22400 | -80.93632 | 740 ft | 6 kts | 120° |
| 2026-05-09 08:32 | 35.22212 | -80.93596 | 740 ft | 48 kts | 175° |
| 2026-05-09 08:33 | 35.21619 | -80.93542 | 736 ft | 120 kts | 175° |
| 2026-05-09 08:33 | 35.20579 | -80.93449 | 751 ft | 174 kts | 176° |
| 2026-05-09 08:33 | 35.19288 | -80.93336 | 1091 ft | 195 kts | 176° |
| 2026-05-09 08:33 | 35.17945 | -80.93207 | 2014 ft | 192 kts | 175° |
| 2026-05-09 08:34 | 35.16642 | -80.93057 | 2911 ft | 194 kts | 175° |
| 2026-05-09 08:34 | 35.15251 | -80.92877 | 3544 ft | 212 kts | 175° |
| 2026-05-09 08:34 | 35.13719 | -80.92663 | 4176 ft | 230 kts | 175° |
| 2026-05-09 08:34 | 35.12066 | -80.92415 | 4810 ft | 249 kts | 175° |
| 2026-05-09 08:35 | 35.10324 | -80.92128 | 5521 ft | 263 kts | 175° |
| 2026-05-09 08:35 | 35.08503 | -80.91801 | 6414 ft | 270 kts | 175° |
| 2026-05-09 08:35 | 35.06637 | -80.91442 | 7217 ft | 275 kts | 175° |
| 2026-05-09 08:35 | 35.04736 | -80.91050 | 7739 ft | 278 kts | 175° |
| 2026-05-09 08:36 | 35.02815 | -80.90640 | 7962 ft | 279 kts | 175° |
| 2026-05-09 08:36 | 35.00918 | -80.90231 | 7973 ft | 279 kts | 175° |
| 2026-05-09 08:36 | 34.98985 | -80.89817 | 7971 ft | 279 kts | 175° |
| 2026-05-09 08:36 | 34.97082 | -80.89563 | 7964 ft | 273 kts | 190° |
| 2026-05-09 08:37 | 34.95385 | -80.90356 | 7961 ft | 261 kts | 222° |
| 2026-05-09 08:37 | 34.94242 | -80.92068 | 7965 ft | 258 kts | 245° |
| 2026-05-09 08:37 | 34.93758 | -80.94131 | 7968 ft | 257 kts | 265° |
| 2026-05-09 08:37 | 34.93969 | -80.96295 | 7977 ft | 263 kts | 286° |
| 2026-05-09 08:38 | 34.94939 | -80.98265 | 8405 ft | 279 kts | 307° |
| 2026-05-09 08:38 | 34.96194 | -80.99981 | 9483 ft | 276 kts | 306° |
| 2026-05-09 08:38 | 34.97450 | -81.01743 | 10486 ft | 276 kts | 306° |
| 2026-05-09 08:38 | 34.98721 | -81.03542 | 11061 ft | 290 kts | 306° |
| 2026-05-09 08:39 | 35.00066 | -81.05454 | 11509 ft | 308 kts | 306° |
| 2026-05-09 08:39 | 35.01506 | -81.07497 | 11924 ft | 327 kts | 306° |
| 2026-05-09 08:39 | 35.03034 | -81.09663 | 12294 ft | 345 kts | 306° |
| 2026-05-09 08:39 | 35.04631 | -81.11919 | 12815 ft | 357 kts | 306° |
| 2026-05-09 08:40 | 35.06259 | -81.14213 | 13543 ft | 362 kts | 306° |
| 2026-05-09 08:40 | 35.07894 | -81.16522 | 14296 ft | 365 kts | 306° |
| 2026-05-09 08:40 | 35.09558 | -81.18877 | 15023 ft | 368 kts | 306° |
| 2026-05-09 08:40 | 35.11234 | -81.21251 | 15767 ft | 370 kts | 306° |
| 2026-05-09 08:41 | 35.12906 | -81.23622 | 16493 ft | 372 kts | 306° |
| 2026-05-09 08:41 | 35.14596 | -81.26024 | 17190 ft | 374 kts | 306° |
| 2026-05-09 08:41 | 35.16290 | -81.28429 | 17844 ft | 377 kts | 306° |
| 2026-05-09 08:41 | 35.17885 | -81.30928 | 18473 ft | 375 kts | 297° |
| 2026-05-09 08:42 | 35.18921 | -81.33813 | 19126 ft | 370 kts | 283° |
| 2026-05-09 08:42 | 35.19327 | -81.36850 | 19804 ft | 367 kts | 271° |
| 2026-05-09 08:42 | 35.19285 | -81.39951 | 20497 ft | 366 kts | 268° |
| 2026-05-09 08:42 | 35.19204 | -81.43047 | 21122 ft | 367 kts | 267° |
| 2026-05-09 08:43 | 35.19117 | -81.46172 | 21686 ft | 369 kts | 268° |
| 2026-05-09 08:43 | 35.19025 | -81.49330 | 22116 ft | 374 kts | 268° |
| 2026-05-09 08:43 | 35.18938 | -81.52497 | 22630 ft | 377 kts | 267° |
| 2026-05-09 08:43 | 35.18838 | -81.55667 | 23185 ft | 377 kts | 267° |
| 2026-05-09 08:44 | 35.18726 | -81.58893 | 23729 ft | 378 kts | 267° |
| 2026-05-09 08:44 | 35.18615 | -81.62046 | 24221 ft | 378 kts | 266° |
| 2026-05-09 08:44 | 35.18515 | -81.65254 | 24668 ft | 380 kts | 267° |
| 2026-05-09 08:44 | 35.18451 | -81.68497 | 25183 ft | 381 kts | 267° |
| 2026-05-09 08:45 | 35.18392 | -81.71707 | 25705 ft | 380 kts | 268° |
| 2026-05-09 08:45 | 35.18332 | -81.74922 | 26131 ft | 381 kts | 267° |
| 2026-05-09 08:45 | 35.18270 | -81.78167 | 26554 ft | 382 kts | 267° |
| 2026-05-09 08:45 | 35.18205 | -81.81387 | 26935 ft | 383 kts | 267° |
| 2026-05-09 08:46 | 35.18136 | -81.84628 | 27339 ft | 383 kts | 267° |
| 2026-05-09 08:46 | 35.18065 | -81.87885 | 27868 ft | 379 kts | 267° |
| 2026-05-09 08:46 | 35.17999 | -81.91083 | 28421 ft | 375 kts | 266° |
| 2026-05-09 08:46 | 35.17931 | -81.94216 | 28920 ft | 372 kts | 266° |
| 2026-05-09 08:47 | 35.17857 | -81.97375 | 29447 ft | 369 kts | 267° |
| 2026-05-09 08:47 | 35.17787 | -82.00465 | 29961 ft | 365 kts | 266° |
| 2026-05-09 08:47 | 35.17717 | -82.03561 | 30442 ft | 362 kts | 266° |
| 2026-05-09 08:47 | 35.17645 | -82.06614 | 30929 ft | 359 kts | 267° |
| 2026-05-09 08:48 | 35.17576 | -82.09616 | 31408 ft | 356 kts | 266° |
| 2026-05-09 08:48 | 35.17555 | -82.12623 | 31843 ft | 354 kts | 268° |
| 2026-05-09 08:48 | 35.17640 | -82.15610 | 32239 ft | 353 kts | 270° |
| 2026-05-09 08:48 | 35.17825 | -82.18613 | 32624 ft | 352 kts | 271° |
| 2026-05-09 08:49 | 35.18106 | -82.21561 | 32973 ft | 352 kts | 273° |
| 2026-05-09 08:49 | 35.18488 | -82.24507 | 33366 ft | 351 kts | 275° |
| 2026-05-09 08:49 | 35.18954 | -82.27391 | 33744 ft | 350 kts | 277° |
| 2026-05-09 08:49 | 35.19525 | -82.30270 | 34132 ft | 349 kts | 278° |
| 2026-05-09 08:50 | 35.20177 | -82.33125 | 34477 ft | 348 kts | 279° |
| 2026-05-09 08:50 | 35.20834 | -82.35973 | 34808 ft | 346 kts | 280° |
| 2026-05-09 08:50 | 35.21485 | -82.38769 | 35156 ft | 344 kts | 281° |
| 2026-05-09 08:50 | 35.22131 | -82.41552 | 35496 ft | 342 kts | 280° |
| 2026-05-09 08:51 | 35.22783 | -82.44325 | 35826 ft | 339 kts | 281° |
| 2026-05-09 08:51 | 35.23425 | -82.47078 | 36136 ft | 337 kts | 280° |
| 2026-05-09 08:51 | 35.24077 | -82.49841 | 36373 ft | 337 kts | 280° |
| 2026-05-09 08:51 | 35.24714 | -82.52569 | 36524 ft | 337 kts | 281° |
| 2026-05-09 08:52 | 35.25361 | -82.55346 | 36651 ft | 338 kts | 280° |
| 2026-05-09 08:52 | 35.26012 | -82.58122 | 36804 ft | 339 kts | 281° |
| 2026-05-09 08:52 | 35.26653 | -82.60875 | 36946 ft | 339 kts | 281° |
| 2026-05-09 08:52 | 35.27303 | -82.63647 | 37076 ft | 340 kts | 281° |
| 2026-05-09 08:53 | 35.27951 | -82.66425 | 37219 ft | 340 kts | 280° |
| 2026-05-09 08:53 | 35.28595 | -82.69192 | 37394 ft | 340 kts | 281° |
| 2026-05-09 08:53 | 35.29235 | -82.71952 | 37587 ft | 339 kts | 280° |
| 2026-05-09 08:53 | 35.29889 | -82.74741 | 37745 ft | 340 kts | 281° |
| 2026-05-09 08:54 | 35.30527 | -82.77510 | 37856 ft | 341 kts | 281° |
| 2026-05-09 08:54 | 35.31819 | -82.83075 | 37941 ft | 340 kts | 281° |
| 2026-05-09 08:55 | 35.33105 | -82.88633 | 37952 ft | 341 kts | 281° |
| 2026-05-09 08:55 | 35.34395 | -82.94201 | 37963 ft | 340 kts | 281° |
| 2026-05-09 08:56 | 35.35680 | -82.99789 | 37964 ft | 341 kts | 281° |
| 2026-05-09 08:56 | 35.36958 | -83.05348 | 37968 ft | 340 kts | 281° |
| 2026-05-09 08:57 | 35.38230 | -83.10897 | 37966 ft | 339 kts | 281° |
| 2026-05-09 08:57 | 35.39498 | -83.16442 | 37980 ft | 340 kts | 281° |
| 2026-05-09 08:58 | 35.40770 | -83.22018 | 37986 ft | 339 kts | 280° |
| 2026-05-09 08:58 | 35.42029 | -83.27557 | 37986 ft | 339 kts | 281° |
| 2026-05-09 08:59 | 35.43290 | -83.33108 | 37982 ft | 338 kts | 281° |
| 2026-05-09 08:59 | 35.44550 | -83.38670 | 37979 ft | 338 kts | 281° |
| 2026-05-09 09:00 | 35.45795 | -83.44193 | 37976 ft | 339 kts | 281° |
| 2026-05-09 09:00 | 35.47038 | -83.49725 | 37976 ft | 338 kts | 281° |
| 2026-05-09 09:01 | 35.48290 | -83.55286 | 37973 ft | 339 kts | 281° |
| 2026-05-09 09:01 | 35.49532 | -83.60857 | 37970 ft | 339 kts | 281° |
| 2026-05-09 09:02 | 35.50766 | -83.66402 | 37970 ft | 338 kts | 281° |
| 2026-05-09 09:02 | 35.51999 | -83.71928 | 37961 ft | 338 kts | 281° |
| 2026-05-09 09:03 | 35.53231 | -83.77480 | 37957 ft | 337 kts | 281° |
| 2026-05-09 09:03 | 35.54461 | -83.83010 | 37954 ft | 337 kts | 280° |
| 2026-05-09 09:04 | 35.55685 | -83.88557 | 37949 ft | 337 kts | 280° |
| 2026-05-09 09:04 | 35.56908 | -83.94117 | 37951 ft | 337 kts | 281° |
| 2026-05-09 09:05 | 35.58128 | -83.99655 | 37952 ft | 337 kts | 280° |
| 2026-05-09 09:05 | 35.59343 | -84.05204 | 37948 ft | 336 kts | 281° |
| 2026-05-09 09:06 | 35.60554 | -84.10746 | 37950 ft | 336 kts | 281° |
| 2026-05-09 09:06 | 35.61765 | -84.16285 | 37951 ft | 337 kts | 280° |
| 2026-05-09 09:07 | 35.62971 | -84.21814 | 37950 ft | 337 kts | 280° |
| 2026-05-09 09:07 | 35.64182 | -84.27391 | 37935 ft | 337 kts | 280° |
| 2026-05-09 09:08 | 35.65380 | -84.32931 | 37928 ft | 337 kts | 281° |
| 2026-05-09 09:08 | 35.66581 | -84.38483 | 37932 ft | 336 kts | 281° |
| 2026-05-09 09:09 | 35.67775 | -84.44011 | 37929 ft | 336 kts | 281° |
| 2026-05-09 09:09 | 35.68970 | -84.49552 | 37929 ft | 337 kts | 280° |
| 2026-05-09 09:10 | 35.70166 | -84.55132 | 37926 ft | 337 kts | 280° |
| 2026-05-09 09:10 | 35.71347 | -84.60659 | 37924 ft | 336 kts | 281° |
| 2026-05-09 09:11 | 35.72533 | -84.66206 | 37929 ft | 336 kts | 280° |
| 2026-05-09 09:11 | 35.73714 | -84.71751 | 37926 ft | 336 kts | 280° |
| 2026-05-09 09:12 | 35.74890 | -84.77287 | 37919 ft | 335 kts | 281° |
| 2026-05-09 09:12 | 35.76073 | -84.82846 | 37924 ft | 336 kts | 280° |
| 2026-05-09 09:13 | 35.77246 | -84.88404 | 37918 ft | 336 kts | 280° |
| 2026-05-09 09:13 | 35.78414 | -84.93959 | 37920 ft | 335 kts | 281° |
| 2026-05-09 09:14 | 35.79586 | -84.99509 | 37915 ft | 335 kts | 279° |
| 2026-05-09 09:14 | 35.80744 | -85.05043 | 37929 ft | 335 kts | 280° |
| 2026-05-09 09:15 | 35.81905 | -85.10590 | 37921 ft | 335 kts | 281° |
| 2026-05-09 09:15 | 35.83065 | -85.16147 | 37926 ft | 335 kts | 280° |
| 2026-05-09 09:16 | 35.84216 | -85.21668 | 37923 ft | 336 kts | 280° |
| 2026-05-09 09:16 | 35.85952 | -85.30033 | 37923 ft | 335 kts | 280° |
| 2026-05-09 09:17 | 35.87096 | -85.35560 | 37922 ft | 335 kts | 280° |
| 2026-05-09 09:17 | 35.88244 | -85.41117 | 37920 ft | 335 kts | 280° |
| 2026-05-09 09:18 | 35.89384 | -85.46661 | 37920 ft | 335 kts | 280° |
| 2026-05-09 09:18 | 35.90525 | -85.52237 | 37919 ft | 335 kts | 280° |
| 2026-05-09 09:19 | 35.91660 | -85.57770 | 37919 ft | 336 kts | 280° |
| 2026-05-09 09:19 | 35.92798 | -85.63375 | 37918 ft | 336 kts | 280° |
| 2026-05-09 09:20 | 35.93936 | -85.68978 | 37922 ft | 337 kts | 279° |
| 2026-05-09 09:20 | 35.95062 | -85.74545 | 37917 ft | 337 kts | 280° |
| 2026-05-09 09:21 | 35.96193 | -85.80154 | 37920 ft | 337 kts | 279° |
| 2026-05-09 09:21 | 35.97326 | -85.85767 | 37918 ft | 337 kts | 280° |
| 2026-05-09 09:22 | 35.98460 | -85.91375 | 37916 ft | 336 kts | 280° |
| 2026-05-09 09:22 | 35.99589 | -85.96942 | 37922 ft | 337 kts | 279° |
| 2026-05-09 09:23 | 36.00715 | -86.02560 | 37913 ft | 336 kts | 279° |
| 2026-05-09 09:23 | 36.01825 | -86.08111 | 37906 ft | 336 kts | 279° |
| 2026-05-09 09:24 | 36.02948 | -86.13738 | 37899 ft | 337 kts | 280° |
| 2026-05-09 09:24 | 36.04068 | -86.19344 | 37898 ft | 337 kts | 279° |
| 2026-05-09 09:25 | 36.05174 | -86.24939 | 37894 ft | 337 kts | 279° |
| 2026-05-09 09:25 | 36.06282 | -86.30547 | 37894 ft | 337 kts | 280° |
| 2026-05-09 09:26 | 36.07395 | -86.36172 | 37898 ft | 338 kts | 280° |
| 2026-05-09 09:26 | 36.08499 | -86.41779 | 37900 ft | 338 kts | 279° |
| 2026-05-09 09:27 | 36.09610 | -86.47420 | 37903 ft | 338 kts | 279° |
| 2026-05-09 09:27 | 36.10709 | -86.53068 | 37900 ft | 337 kts | 279° |
| 2026-05-09 09:28 | 36.11804 | -86.58677 | 37899 ft | 337 kts | 280° |
| 2026-05-09 09:28 | 36.12807 | -86.64285 | 37898 ft | 336 kts | 277° |
| 2026-05-09 09:29 | 36.13454 | -86.70010 | 37899 ft | 335 kts | 273° |
| 2026-05-09 09:29 | 36.13736 | -86.75752 | 37895 ft | 335 kts | 270° |
| 2026-05-09 09:30 | 36.13817 | -86.81490 | 37894 ft | 334 kts | 270° |
| 2026-05-09 09:30 | 36.13885 | -86.87194 | 37892 ft | 333 kts | 270° |
| 2026-05-09 09:31 | 36.13952 | -86.92903 | 37889 ft | 334 kts | 271° |
| 2026-05-09 09:32 | 36.14038 | -87.01479 | 37894 ft | 333 kts | 270° |
| 2026-05-09 09:32 | 36.14088 | -87.07209 | 37890 ft | 334 kts | 270° |
| 2026-05-09 09:33 | 36.14131 | -87.12923 | 37892 ft | 334 kts | 270° |
| 2026-05-09 09:33 | 36.14176 | -87.18648 | 37899 ft | 335 kts | 270° |
| 2026-05-09 09:34 | 36.14219 | -87.24392 | 37897 ft | 335 kts | 270° |
| 2026-05-09 09:34 | 36.14254 | -87.30132 | 37898 ft | 336 kts | 270° |
| 2026-05-09 09:36 | 36.14379 | -87.53146 | 37889 ft | 335 kts | 270° |
| 2026-05-09 09:37 | 36.14399 | -87.58915 | 37893 ft | 336 kts | 269° |
| 2026-05-09 09:37 | 36.14420 | -87.64700 | 37890 ft | 337 kts | 270° |
| 2026-05-09 09:38 | 36.14440 | -87.70489 | 37886 ft | 338 kts | 269° |
| 2026-05-09 09:38 | 36.14459 | -87.76273 | 37884 ft | 338 kts | 269° |
| 2026-05-09 09:39 | 36.14469 | -87.82097 | 37886 ft | 338 kts | 269° |
| 2026-05-09 09:39 | 36.14475 | -87.87904 | 37882 ft | 338 kts | 270° |
| 2026-05-09 09:40 | 36.14489 | -87.93694 | 37796 ft | 338 kts | 269° |
| 2026-05-09 09:40 | 36.14495 | -87.99498 | 37868 ft | 339 kts | 269° |
| 2026-05-09 09:41 | 36.14498 | -88.05326 | 37879 ft | 340 kts | 270° |
| 2026-05-09 09:41 | 36.14497 | -88.11166 | 37877 ft | 340 kts | 269° |
| 2026-05-09 09:42 | 36.14491 | -88.16989 | 37912 ft | 340 kts | 269° |
| 2026-05-09 09:42 | 36.14484 | -88.22794 | 37887 ft | 340 kts | 270° |
| 2026-05-09 09:43 | 36.14478 | -88.28655 | 37873 ft | 341 kts | 269° |
| 2026-05-09 09:43 | 36.14460 | -88.34515 | 37875 ft | 341 kts | 270° |
| 2026-05-09 09:44 | 36.14443 | -88.40404 | 37876 ft | 342 kts | 269° |
| 2026-05-09 09:44 | 36.14427 | -88.46287 | 37870 ft | 345 kts | 269° |
| 2026-05-09 09:45 | 36.14398 | -88.52165 | 37870 ft | 344 kts | 269° |
| 2026-05-09 09:45 | 36.14378 | -88.58094 | 37876 ft | 346 kts | 269° |
| 2026-05-09 09:46 | 36.14359 | -88.64024 | 37872 ft | 346 kts | 269° |
| 2026-05-09 09:46 | 36.14325 | -88.69978 | 37876 ft | 347 kts | 269° |
| 2026-05-09 09:47 | 36.14297 | -88.75912 | 37869 ft | 349 kts | 269° |
| 2026-05-09 09:47 | 36.14259 | -88.81910 | 37870 ft | 349 kts | 268° |
| 2026-05-09 09:48 | 36.14219 | -88.87870 | 37880 ft | 349 kts | 269° |
| 2026-05-09 09:48 | 36.14182 | -88.93867 | 37873 ft | 350 kts | 269° |
| 2026-05-09 09:49 | 36.14135 | -88.99888 | 37868 ft | 352 kts | 268° |
| 2026-05-09 09:49 | 36.14086 | -89.05913 | 37861 ft | 352 kts | 269° |
| 2026-05-09 09:50 | 36.14039 | -89.11942 | 37865 ft | 353 kts | 269° |
| 2026-05-09 09:50 | 36.13979 | -89.18000 | 37864 ft | 353 kts | 269° |
| 2026-05-09 09:51 | 36.13921 | -89.24026 | 37866 ft | 354 kts | 269° |
| 2026-05-09 09:51 | 36.13862 | -89.30096 | 37869 ft | 354 kts | 268° |
| 2026-05-09 09:52 | 36.13800 | -89.36166 | 37863 ft | 353 kts | 269° |
| 2026-05-09 09:52 | 36.13731 | -89.42254 | 37867 ft | 354 kts | 268° |
| 2026-05-09 09:53 | 36.13662 | -89.48316 | 37858 ft | 355 kts | 268° |
| 2026-05-09 09:53 | 36.13587 | -89.54415 | 37865 ft | 355 kts | 269° |
| 2026-05-09 09:54 | 36.13512 | -89.60488 | 37871 ft | 356 kts | 269° |
| 2026-05-09 09:54 | 36.13431 | -89.66631 | 37874 ft | 357 kts | 268° |
| 2026-05-09 09:55 | 36.13350 | -89.72719 | 37877 ft | 358 kts | 268° |
| 2026-05-09 09:55 | 36.13258 | -89.78878 | 37870 ft | 358 kts | 268° |
| 2026-05-09 09:56 | 36.13171 | -89.85053 | 37863 ft | 360 kts | 268° |
| 2026-05-09 09:56 | 36.13073 | -89.91187 | 37856 ft | 360 kts | 268° |
| 2026-05-09 09:57 | 36.12976 | -89.97360 | 37854 ft | 360 kts | 268° |
| 2026-05-09 09:57 | 36.12874 | -90.03526 | 37855 ft | 361 kts | 268° |
| 2026-05-09 09:58 | 36.12772 | -90.09705 | 37863 ft | 361 kts | 268° |
| 2026-05-09 09:58 | 36.12663 | -90.15915 | 37857 ft | 362 kts | 268° |
| 2026-05-09 09:59 | 36.12551 | -90.22081 | 37862 ft | 362 kts | 268° |
| 2026-05-09 09:59 | 36.12433 | -90.28317 | 37857 ft | 363 kts | 268° |
| 2026-05-09 10:00 | 36.12318 | -90.34556 | 37855 ft | 363 kts | 269° |
| 2026-05-09 10:00 | 36.12206 | -90.40782 | 37860 ft | 365 kts | 269° |
| 2026-05-09 10:01 | 36.12083 | -90.47014 | 37864 ft | 365 kts | 268° |
| 2026-05-09 10:01 | 36.11955 | -90.53289 | 37870 ft | 366 kts | 269° |
| 2026-05-09 10:02 | 36.11823 | -90.59579 | 37856 ft | 367 kts | 269° |
| 2026-05-09 10:02 | 36.11694 | -90.65861 | 37847 ft | 367 kts | 268° |
| 2026-05-09 10:03 | 36.11552 | -90.72143 | 37855 ft | 368 kts | 268° |
| 2026-05-09 10:03 | 36.11409 | -90.78479 | 37849 ft | 370 kts | 268° |
| 2026-05-09 10:04 | 36.11263 | -90.84772 | 37864 ft | 369 kts | 268° |
| 2026-05-09 10:04 | 36.11115 | -90.91113 | 37863 ft | 370 kts | 268° |
| 2026-05-09 10:05 | 36.11113 | -90.97465 | 37865 ft | 371 kts | 271° |
| 2026-05-09 10:05 | 36.11348 | -91.03813 | 37887 ft | 371 kts | 271° |
| 2026-05-09 10:06 | 36.11579 | -91.10160 | 37860 ft | 372 kts | 271° |
| 2026-05-09 10:06 | 36.11810 | -91.16548 | 37868 ft | 372 kts | 272° |
| 2026-05-09 10:07 | 36.12035 | -91.22894 | 37860 ft | 372 kts | 271° |
| 2026-05-09 10:07 | 36.12263 | -91.29273 | 37867 ft | 372 kts | 271° |
| 2026-05-09 10:08 | 36.12484 | -91.35671 | 37869 ft | 373 kts | 271° |
| 2026-05-09 10:08 | 36.12705 | -91.42069 | 37880 ft | 374 kts | 271° |
| 2026-05-09 10:09 | 36.12918 | -91.48473 | 37864 ft | 375 kts | 272° |
| 2026-05-09 10:09 | 36.13139 | -91.54905 | 37870 ft | 376 kts | 272° |
| 2026-05-09 10:10 | 36.13496 | -91.61337 | 37878 ft | 376 kts | 274° |
| 2026-05-09 10:10 | 36.13862 | -91.67796 | 37878 ft | 377 kts | 273° |
| 2026-05-09 10:11 | 36.14219 | -91.74257 | 37863 ft | 378 kts | 272° |
| 2026-05-09 10:11 | 36.14571 | -91.80728 | 37862 ft | 378 kts | 272° |
| 2026-05-09 10:12 | 36.14912 | -91.87206 | 37881 ft | 379 kts | 272° |
| 2026-05-09 10:12 | 36.15253 | -91.93693 | 37871 ft | 380 kts | 273° |
| 2026-05-09 10:13 | 36.15595 | -92.00230 | 37871 ft | 381 kts | 272° |
| 2026-05-09 10:13 | 36.15931 | -92.06746 | 37866 ft | 382 kts | 273° |
| 2026-05-09 10:14 | 36.16262 | -92.13255 | 37878 ft | 383 kts | 272° |
| 2026-05-09 10:14 | 36.16596 | -92.19860 | 37888 ft | 384 kts | 272° |
| 2026-05-09 10:15 | 36.16918 | -92.26392 | 37890 ft | 385 kts | 273° |
| 2026-05-09 10:15 | 36.17244 | -92.33009 | 37897 ft | 386 kts | 273° |
| 2026-05-09 10:16 | 36.17564 | -92.39593 | 37889 ft | 386 kts | 273° |
| 2026-05-09 10:16 | 36.17883 | -92.46212 | 37894 ft | 386 kts | 273° |
| 2026-05-09 10:17 | 36.18199 | -92.52864 | 37892 ft | 388 kts | 273° |
| 2026-05-09 10:17 | 36.18510 | -92.59478 | 37900 ft | 388 kts | 273° |
| 2026-05-09 10:18 | 36.18821 | -92.66155 | 37894 ft | 389 kts | 272° |
| 2026-05-09 10:18 | 36.19122 | -92.72800 | 37898 ft | 390 kts | 273° |
| 2026-05-09 10:19 | 36.19427 | -92.79495 | 37890 ft | 390 kts | 272° |
| 2026-05-09 10:19 | 36.19725 | -92.86158 | 37895 ft | 391 kts | 273° |
| 2026-05-09 10:20 | 36.20020 | -92.92879 | 37905 ft | 391 kts | 273° |
| 2026-05-09 10:20 | 36.20316 | -92.99598 | 37913 ft | 392 kts | 273° |
| 2026-05-09 10:21 | 36.20605 | -93.06342 | 37900 ft | 392 kts | 273° |
| 2026-05-09 10:21 | 36.20890 | -93.13055 | 37899 ft | 393 kts | 273° |
| 2026-05-09 10:22 | 36.21172 | -93.19790 | 37903 ft | 393 kts | 273° |
| 2026-05-09 10:22 | 36.21452 | -93.26559 | 37904 ft | 394 kts | 273° |
| 2026-05-09 10:23 | 36.21727 | -93.33298 | 37904 ft | 395 kts | 273° |
| 2026-05-09 10:23 | 36.22001 | -93.40095 | 37900 ft | 395 kts | 273° |
| 2026-05-09 10:24 | 36.22270 | -93.46861 | 37902 ft | 396 kts | 273° |
| 2026-05-09 10:24 | 36.22534 | -93.53621 | 37914 ft | 396 kts | 273° |
| 2026-05-09 10:25 | 36.22796 | -93.60462 | 37910 ft | 397 kts | 274° |
| 2026-05-09 10:25 | 36.23054 | -93.67273 | 37912 ft | 398 kts | 273° |
| 2026-05-09 10:26 | 36.23311 | -93.74121 | 37908 ft | 398 kts | 272° |
| 2026-05-09 10:26 | 36.23561 | -93.80956 | 37904 ft | 399 kts | 273° |
| 2026-05-09 10:27 | 36.23804 | -93.87725 | 37403 ft | 393 kts | 273° |
| 2026-05-09 10:27 | 36.23924 | -93.91083 | 36506 ft | 396 kts | 274° |
| 2026-05-09 10:27 | 36.24042 | -93.94492 | 35367 ft | 403 kts | 274° |
| 2026-05-09 10:27 | 36.24163 | -93.97996 | 34138 ft | 412 kts | 274° |
| 2026-05-09 10:28 | 36.24285 | -94.01529 | 32949 ft | 420 kts | 274° |
| 2026-05-09 10:28 | 36.24412 | -94.05128 | 31850 ft | 424 kts | 274° |
| 2026-05-09 10:28 | 36.24540 | -94.08780 | 30807 ft | 427 kts | 274° |
| 2026-05-09 10:28 | 36.24615 | -94.12435 | 29725 ft | 431 kts | 272° |
| 2026-05-09 10:29 | 36.24559 | -94.16157 | 28652 ft | 433 kts | 271° |
| 2026-05-09 10:29 | 36.24478 | -94.19849 | 27697 ft | 432 kts | 270° |
| 2026-05-09 10:29 | 36.24390 | -94.23542 | 26752 ft | 431 kts | 270° |
| 2026-05-09 10:29 | 36.24301 | -94.27199 | 25792 ft | 431 kts | 270° |
| 2026-05-09 10:30 | 36.24212 | -94.30897 | 25012 ft | 427 kts | 270° |
| 2026-05-09 10:30 | 36.24119 | -94.34523 | 24440 ft | 423 kts | 271° |
| 2026-05-09 10:30 | 36.24028 | -94.38139 | 23869 ft | 419 kts | 271° |
| 2026-05-09 10:30 | 36.23937 | -94.41705 | 23299 ft | 414 kts | 271° |
| 2026-05-09 10:31 | 36.23846 | -94.45224 | 22736 ft | 410 kts | 271° |
| 2026-05-09 10:31 | 36.23754 | -94.48756 | 22149 ft | 406 kts | 271° |
| 2026-05-09 10:31 | 36.23661 | -94.52175 | 21579 ft | 401 kts | 271° |
| 2026-05-09 10:31 | 36.23568 | -94.55639 | 21000 ft | 397 kts | 271° |
| 2026-05-09 10:32 | 36.23476 | -94.59010 | 20416 ft | 393 kts | 271° |
| 2026-05-09 10:32 | 36.23385 | -94.62363 | 19850 ft | 389 kts | 272° |
| 2026-05-09 10:32 | 36.23293 | -94.65674 | 19296 ft | 385 kts | 271° |
| 2026-05-09 10:32 | 36.23202 | -94.68958 | 18736 ft | 382 kts | 272° |
| 2026-05-09 10:33 | 36.23110 | -94.72191 | 18188 ft | 379 kts | 272° |
| 2026-05-09 10:33 | 36.23018 | -94.75461 | 17620 ft | 376 kts | 272° |
| 2026-05-09 10:33 | 36.22929 | -94.78640 | 17045 ft | 374 kts | 272° |
| 2026-05-09 10:33 | 36.22838 | -94.81857 | 16449 ft | 373 kts | 272° |
| 2026-05-09 10:34 | 36.22747 | -94.85070 | 15832 ft | 372 kts | 272° |
| 2026-05-09 10:34 | 36.22563 | -94.91414 | 14565 ft | 372 kts | 272° |
| 2026-05-09 10:34 | 36.22467 | -94.94596 | 13940 ft | 371 kts | 272° |
| 2026-05-09 10:35 | 36.22371 | -94.97787 | 13300 ft | 370 kts | 272° |
| 2026-05-09 10:35 | 36.22276 | -95.00942 | 12661 ft | 370 kts | 271° |
| 2026-05-09 10:35 | 36.22181 | -95.04101 | 12020 ft | 368 kts | 271° |
| 2026-05-09 10:35 | 36.22082 | -95.07244 | 11613 ft | 358 kts | 271° |
| 2026-05-09 10:36 | 36.21983 | -95.10281 | 11303 ft | 347 kts | 271° |
| 2026-05-09 10:36 | 36.21888 | -95.13187 | 10960 ft | 337 kts | 271° |
| 2026-05-09 10:36 | 36.21796 | -95.16037 | 10715 ft | 326 kts | 271° |
| 2026-05-09 10:36 | 36.21707 | -95.18790 | 10510 ft | 313 kts | 271° |
| 2026-05-09 10:37 | 36.21621 | -95.21422 | 10321 ft | 302 kts | 271° |
| 2026-05-09 10:37 | 36.21534 | -95.23961 | 10143 ft | 291 kts | 271° |
| 2026-05-09 10:37 | 36.21439 | -95.26420 | 9966 ft | 282 kts | 271° |
| 2026-05-09 10:37 | 36.21352 | -95.28831 | 9798 ft | 282 kts | 271° |
| 2026-05-09 10:38 | 36.21267 | -95.31259 | 9645 ft | 281 kts | 271° |
| 2026-05-09 10:38 | 36.21187 | -95.33643 | 9490 ft | 281 kts | 271° |
| 2026-05-09 10:38 | 36.21109 | -95.36055 | 9318 ft | 281 kts | 271° |
| 2026-05-09 10:38 | 36.21027 | -95.38486 | 9162 ft | 281 kts | 271° |
| 2026-05-09 10:39 | 36.20950 | -95.40873 | 9020 ft | 280 kts | 271° |
| 2026-05-09 10:39 | 36.20875 | -95.43293 | 8846 ft | 279 kts | 271° |
| 2026-05-09 10:39 | 36.20805 | -95.45673 | 8686 ft | 280 kts | 271° |
| 2026-05-09 10:39 | 36.20732 | -95.48066 | 8518 ft | 279 kts | 271° |
| 2026-05-09 10:40 | 36.20701 | -95.50469 | 8350 ft | 276 kts | 278° |
| 2026-05-09 10:40 | 36.21284 | -95.52690 | 8167 ft | 270 kts | 304° |
| 2026-05-09 10:40 | 36.22404 | -95.54544 | 8001 ft | 269 kts | 311° |
| 2026-05-09 10:40 | 36.23629 | -95.56304 | 7822 ft | 269 kts | 313° |
| 2026-05-09 10:41 | 36.24867 | -95.58041 | 7652 ft | 269 kts | 313° |
| 2026-05-09 10:41 | 36.26108 | -95.59773 | 7477 ft | 268 kts | 313° |
| 2026-05-09 10:41 | 36.27333 | -95.61483 | 7302 ft | 267 kts | 313° |
| 2026-05-09 10:41 | 36.28574 | -95.63216 | 7124 ft | 267 kts | 313° |
| 2026-05-09 10:42 | 36.29802 | -95.64939 | 6945 ft | 267 kts | 313° |
| 2026-05-09 10:42 | 36.31016 | -95.66649 | 6772 ft | 266 kts | 313° |
| 2026-05-09 10:42 | 36.32257 | -95.68386 | 6584 ft | 267 kts | 313° |
| 2026-05-09 10:42 | 36.33481 | -95.70097 | 6397 ft | 267 kts | 313° |
| 2026-05-09 10:43 | 36.34713 | -95.71826 | 6209 ft | 267 kts | 313° |
| 2026-05-09 10:43 | 36.35931 | -95.73537 | 6043 ft | 264 kts | 313° |
| 2026-05-09 10:43 | 36.37127 | -95.75217 | 5847 ft | 254 kts | 313° |
| 2026-05-09 10:43 | 36.38274 | -95.76828 | 5658 ft | 246 kts | 313° |
| 2026-05-09 10:44 | 36.39388 | -95.78394 | 5469 ft | 238 kts | 313° |
| 2026-05-09 10:44 | 36.40459 | -95.79906 | 5290 ft | 230 kts | 313° |
| 2026-05-09 10:44 | 36.41498 | -95.81378 | 5116 ft | 223 kts | 313° |
| 2026-05-09 10:44 | 36.42488 | -95.82828 | 4936 ft | 218 kts | 306° |
| 2026-05-09 10:45 | 36.42923 | -95.84589 | 4733 ft | 217 kts | 265° |
| 2026-05-09 10:46 | 36.38685 | -95.87372 | 4105 ft | 182 kts | 171° |
| 2026-05-09 10:46 | 36.37453 | -95.87217 | 3902 ft | 176 kts | 177° |
| 2026-05-09 10:46 | 36.36241 | -95.87189 | 3666 ft | 170 kts | 181° |
| 2026-05-09 10:46 | 36.35074 | -95.87227 | 3338 ft | 164 kts | 182° |
| 2026-05-09 10:47 | 36.33963 | -95.87292 | 2981 ft | 158 kts | 184° |
| 2026-05-09 10:47 | 36.32894 | -95.87363 | 2687 ft | 148 kts | 184° |
| 2026-05-09 10:47 | 36.31912 | -95.87430 | 2488 ft | 140 kts | 184° |
| 2026-05-09 10:47 | 36.30936 | -95.87496 | 2325 ft | 140 kts | 184° |
| 2026-05-09 10:48 | 36.29967 | -95.87562 | 2170 ft | 139 kts | 184° |
| 2026-05-09 10:48 | 36.28996 | -95.87627 | 2004 ft | 138 kts | 184° |
| 2026-05-09 10:48 | 36.28037 | -95.87689 | 1838 ft | 137 kts | 184° |
| 2026-05-09 10:48 | 36.27096 | -95.87753 | 1672 ft | 136 kts | 184° |
| 2026-05-09 10:49 | 36.26146 | -95.87816 | 1501 ft | 135 kts | 184° |
| 2026-05-09 10:49 | 36.25207 | -95.87878 | 1329 ft | 135 kts | 184° |
| 2026-05-09 10:49 | 36.24269 | -95.87940 | 1161 ft | 134 kts | 184° |
| 2026-05-09 10:49 | 36.23345 | -95.88000 | 1001 ft | 133 kts | 184° |
| 2026-05-09 10:50 | 36.22409 | -95.88058 | 869 ft | 133 kts | 183° |
| 2026-05-09 10:50 | 36.21495 | -95.88113 | 650 ft | 130 kts | 183° |
| 2026-05-09 10:50 | 36.20623 | -95.88178 | 632 ft | 108 kts | 184° |
| 2026-05-09 10:50 | 36.20045 | -95.88219 | 644 ft | 59 kts | 184° |
| 2026-05-09 10:51 | 36.19798 | -95.88237 | 648 ft | 23 kts | 186° |
| 2026-05-09 10:51 | 36.19721 | -95.88303 | 649 ft | 13 kts | 265° |
| 2026-05-09 10:51 | 36.19720 | -95.88416 | 650 ft | 13 kts | 270° |
| 2026-05-09 10:51 | 36.19720 | -95.88536 | 649 ft | 14 kts | 268° |
| 2026-05-09 10:52 | 36.19671 | -95.88591 | 649 ft | 6 kts | 182° |
| 2026-05-09 10:52 | 36.19646 | -95.88590 | 649 ft | 1 kts | 177° |
| 2026-05-09 10:52 | 36.19588 | -95.88589 | 649 ft | 11 kts | 179° |
| 2026-05-09 10:52 | 36.19508 | -95.88587 | 651 ft | 11 kts | 179° |
| 2026-05-09 10:53 | 36.19426 | -95.88588 | 651 ft | 12 kts | 186° |
| 2026-05-09 10:53 | 36.19345 | -95.88636 | 651 ft | 13 kts | 217° |
| 2026-05-09 10:53 | 36.19271 | -95.88704 | 653 ft | 12 kts | 217° |
| 2026-05-09 10:53 | 36.19204 | -95.88738 | 654 ft | 10 kts | 172° |
| 2026-05-09 10:54 | 36.19156 | -95.88722 | 655 ft | 3 kts | 166° |
| 2026-05-09 10:54 | 36.19152 | -95.88721 | 655 ft | 0 kts | 165° |